createdAt,value
2022-10-17T00:00:10.163Z,5.60
2022-10-17T00:02:36.612Z,6.50
2022-10-17T00:05:03.327Z,6.00
2022-10-17T00:07:30.968Z,4.85
2022-10-17T00:09:57.626Z,5.50
2022-10-17T00:12:24.065Z,4.75
2022-10-17T00:14:50.501Z,5.43
2022-10-17T00:17:17.111Z,4.70
2022-10-17T00:19:43.538Z,5.07
2022-10-17T00:22:10.056Z,5.28
2022-10-17T00:24:36.590Z,5.13
2022-10-17T00:27:05.459Z,5.22
2022-10-17T00:29:31.929Z,5.55
2022-10-17T00:31:58.463Z,5.03
2022-10-17T00:34:25.670Z,5.30
2022-10-17T00:36:52.182Z,4.38
2022-10-17T00:39:18.966Z,4.32
2022-10-17T00:41:45.344Z,5.38
2022-10-17T00:44:30.458Z,5.90
2022-10-17T00:46:58.795Z,6.30
2022-10-17T00:49:30.278Z,5.72
2022-10-17T00:52:01.385Z,5.30
2022-10-17T00:54:33.347Z,5.95
2022-10-17T00:57:00.773Z,5.78
2022-10-17T00:59:29.223Z,4.78
2022-10-17T01:02:08.619Z,4.75
2022-10-17T01:04:37.194Z,4.88
2022-10-17T01:07:03.692Z,4.60
2022-10-17T01:09:30.613Z,4.45
2022-10-17T01:12:07.396Z,5.50
2022-10-17T01:15:11.215Z,3.90
2022-10-17T01:17:59.197Z,4.35
2022-10-17T01:20:44.470Z,4.55
2022-10-17T01:23:23.003Z,4.78
2022-10-17T01:26:27.284Z,3.95
2022-10-17T01:29:19.110Z,4.75
2022-10-17T01:32:04.174Z,4.15
2022-10-17T01:34:41.753Z,4.20
2022-10-17T01:37:29.787Z,4.32
2022-10-17T01:40:10.455Z,4.50
2022-10-17T01:42:57.871Z,4.47
2022-10-17T01:45:38.452Z,4.43
2022-10-17T01:48:11.555Z,4.13
2022-10-17T01:50:43.537Z,4.18
2022-10-17T01:53:29.917Z,3.83
2022-10-17T01:56:00.135Z,4.10
2022-10-17T01:58:34.946Z,4.20
2022-10-17T02:01:06.435Z,4.30
2022-10-17T02:03:34.990Z,4.03
2022-10-17T02:06:01.660Z,4.90
2022-10-17T02:08:40.324Z,3.45
2022-10-17T02:11:15.778Z,4.07
2022-10-17T02:13:42.100Z,3.65
2022-10-17T02:16:34.046Z,4.38
2022-10-17T02:19:09.840Z,4.80
2022-10-17T02:22:04.901Z,4.93
2022-10-17T02:24:48.843Z,4.70
2022-10-17T02:27:25.544Z,4.00
2022-10-17T02:30:13.274Z,4.10
2022-10-17T02:33:03.743Z,3.83
2022-10-17T02:35:37.580Z,4.50
2022-10-17T02:38:06.565Z,4.35
2022-10-17T02:40:33.857Z,4.05
2022-10-17T02:43:02.841Z,4.38
2022-10-17T02:45:35.649Z,3.95
2022-10-17T02:48:08.207Z,4.55
2022-10-17T02:51:04.016Z,4.50
2022-10-17T02:53:37.901Z,3.35
2022-10-17T02:56:12.509Z,4.32
2022-10-17T02:58:42.707Z,3.67
2022-10-17T03:01:09.721Z,3.47
2022-10-17T03:03:36.187Z,4.03
2022-10-17T03:06:02.632Z,3.60
2022-10-17T03:08:29.091Z,3.75
2022-10-17T03:10:55.839Z,4.38
2022-10-17T03:13:22.361Z,4.28
2022-10-17T03:15:48.729Z,3.95
2022-10-17T03:18:15.232Z,3.92
2022-10-17T03:20:41.698Z,4.20
2022-10-17T03:23:08.341Z,3.80
2022-10-17T03:25:34.837Z,4.22
2022-10-17T03:28:01.615Z,3.92
2022-10-17T03:30:29.179Z,3.97
2022-10-17T03:32:57.828Z,3.92
2022-10-17T03:35:24.971Z,3.85
2022-10-17T03:37:51.471Z,3.88
2022-10-17T03:40:18.002Z,3.88
2022-10-17T03:42:44.439Z,4.03
2022-10-17T03:45:11.087Z,3.97
2022-10-17T03:47:37.528Z,4.20
2022-10-17T03:50:04.306Z,4.30
2022-10-17T03:52:30.703Z,4.03
2022-10-17T03:54:57.148Z,4.35
2022-10-17T03:57:23.655Z,5.05
2022-10-17T03:59:52.251Z,3.92
2022-10-17T04:02:18.874Z,4.55
2022-10-17T04:04:46.477Z,3.60
2022-10-17T04:07:12.887Z,3.20
2022-10-17T04:09:39.261Z,3.42
2022-10-17T04:12:05.645Z,3.55
2022-10-17T04:14:32.153Z,4.75
2022-10-17T04:16:58.664Z,5.07
2022-10-17T04:19:25.881Z,4.93
2022-10-17T04:21:52.376Z,4.55
2022-10-17T04:24:18.901Z,3.85
2022-10-17T04:26:45.874Z,4.75
2022-10-17T04:29:12.409Z,4.40
2022-10-17T04:31:38.875Z,4.07
2022-10-17T04:34:05.469Z,3.67
2022-10-17T04:36:31.947Z,4.28
2022-10-17T04:39:01.682Z,3.80
2022-10-17T04:41:28.302Z,4.43
2022-10-17T04:43:54.902Z,3.47
2022-10-17T04:46:21.627Z,4.68
2022-10-17T04:48:48.341Z,4.20
2022-10-17T04:51:18.811Z,4.57
2022-10-17T04:53:48.393Z,4.43
2022-10-17T04:56:18.431Z,4.25
2022-10-17T04:58:46.277Z,4.30
2022-10-17T05:01:15.678Z,3.90
2022-10-17T05:03:42.969Z,4.57
2022-10-17T05:06:15.311Z,4.25
2022-10-17T05:08:41.983Z,4.88
2022-10-17T05:11:18.930Z,5.47
2022-10-17T05:13:49.361Z,4.25
2022-10-17T05:16:15.820Z,6.00
2022-10-17T05:18:42.250Z,4.50
2022-10-17T05:21:08.718Z,5.55
2022-10-17T05:23:35.134Z,4.38
2022-10-17T05:26:01.626Z,3.80
2022-10-17T05:28:28.372Z,3.92
2022-10-17T05:30:54.855Z,3.25
2022-10-17T05:33:23.071Z,4.68
2022-10-17T05:35:49.791Z,3.63
2022-10-17T05:38:16.191Z,4.45
2022-10-17T05:40:42.583Z,4.95
2022-10-17T05:43:08.960Z,5.78
2022-10-17T05:45:36.125Z,4.80
2022-10-17T05:48:03.190Z,5.25
2022-10-17T05:50:29.749Z,4.53
2022-10-17T05:52:56.194Z,4.60
2022-10-17T05:55:23.207Z,4.53
2022-10-17T05:57:50.576Z,6.40
2022-10-17T06:00:17.190Z,5.63
2022-10-17T06:02:45.892Z,4.18
2022-10-17T06:05:13.039Z,5.10
2022-10-17T06:07:39.864Z,5.00
2022-10-17T06:10:10.028Z,6.60
2022-10-17T06:12:36.415Z,6.97
2022-10-17T06:15:03.263Z,4.55
2022-10-17T06:17:30.311Z,3.97
2022-10-17T06:19:57.358Z,5.05
2022-10-17T06:22:23.911Z,4.50
2022-10-17T06:24:50.375Z,5.50
2022-10-17T06:27:16.761Z,5.00
2022-10-17T06:29:43.098Z,6.50
2022-10-17T06:32:12.624Z,5.28
2022-10-17T06:34:41.408Z,6.70
2022-10-17T06:37:07.886Z,5.07
2022-10-17T06:39:35.802Z,6.78
2022-10-17T06:42:03.264Z,5.35
2022-10-17T06:44:31.641Z,6.10
2022-10-17T06:46:59.080Z,6.53
2022-10-17T06:49:25.824Z,5.85
2022-10-17T06:51:52.280Z,5.90
2022-10-17T06:54:21.316Z,6.93
2022-10-17T06:59:15.492Z,6.82
2022-10-17T07:01:46.067Z,6.72
2022-10-17T07:04:14.382Z,6.95
2022-10-17T07:06:40.951Z,7.15
2022-10-17T07:09:10.590Z,6.28
2022-10-17T07:11:37.255Z,5.72
2022-10-17T07:14:03.923Z,5.57
2022-10-17T07:16:30.508Z,5.70
2022-10-17T07:18:57.096Z,4.88
2022-10-17T07:21:24.934Z,5.28
2022-10-17T07:23:51.434Z,5.13
2022-10-17T07:26:19.010Z,4.55
2022-10-17T07:28:47.424Z,4.38
2022-10-17T07:31:16.551Z,4.30
2022-10-17T07:33:43.773Z,4.22
2022-10-17T07:36:11.323Z,4.07
2022-10-17T07:38:37.974Z,3.67
2022-10-17T07:41:06.996Z,4.65
2022-10-17T07:43:33.776Z,4.60
2022-10-17T07:46:01.594Z,4.72
2022-10-17T07:48:28.663Z,4.82
2022-10-17T07:50:57.980Z,5.15
2022-10-17T07:54:00.116Z,5.10
2022-10-17T07:56:26.529Z,5.03
2022-10-17T07:58:53.241Z,4.43
2022-10-17T08:01:19.681Z,5.22
2022-10-17T08:03:48.459Z,5.18
2022-10-17T08:08:42.589Z,4.47
2022-10-17T08:11:11.574Z,4.28
2022-10-17T08:13:38.887Z,4.63
2022-10-17T08:16:08.010Z,4.28
2022-10-17T08:18:39.672Z,4.60
2022-10-17T08:21:15.865Z,3.70
2022-10-17T08:23:42.430Z,3.88
2022-10-17T08:26:13.390Z,3.75
2022-10-17T08:28:40.595Z,3.72
2022-10-17T08:31:11.973Z,3.72
2022-10-17T08:33:38.415Z,3.80
2022-10-17T08:36:05.828Z,3.80
2022-10-17T08:38:35.456Z,3.30
2022-10-17T08:41:15.519Z,3.35
2022-10-17T08:44:01.591Z,3.38
2022-10-17T08:46:39.137Z,3.50
2022-10-17T08:49:15.257Z,2.95
2022-10-17T08:51:52.719Z,3.05
2022-10-17T08:54:26.551Z,3.22
2022-10-17T08:56:55.241Z,3.33
2022-10-17T08:59:27.847Z,2.75
2022-10-17T09:02:07.411Z,2.70
2022-10-17T09:04:57.364Z,2.83
2022-10-17T09:07:43.572Z,2.97
2022-10-17T09:10:28.720Z,3.03
2022-10-17T09:13:23.009Z,3.13
2022-10-17T09:16:40.767Z,3.30
2022-10-17T09:19:31.885Z,3.13
2022-10-17T09:21:59.912Z,3.15
2022-10-17T09:24:48.137Z,2.47
2022-10-17T09:27:25.275Z,3.08
2022-10-17T09:29:57.817Z,3.35
2022-10-17T09:32:25.972Z,3.47
2022-10-17T09:34:53.663Z,3.33
2022-10-17T09:37:33.401Z,3.17
2022-10-17T09:40:01.865Z,3.38
2022-10-17T09:42:28.916Z,3.03
2022-10-17T09:45:26.956Z,2.83
2022-10-17T09:48:13.504Z,3.10
2022-10-17T09:50:41.763Z,3.47
2022-10-17T09:53:22.305Z,3.22
2022-10-17T09:55:55.470Z,3.38
2022-10-17T09:58:22.803Z,3.85
2022-10-17T10:00:49.811Z,3.22
2022-10-17T10:03:22.822Z,3.45
2022-10-17T10:06:13.764Z,2.70
2022-10-17T10:08:55.405Z,3.15
2022-10-17T10:11:44.449Z,3.20
2022-10-17T10:14:13.258Z,2.75
2022-10-17T10:16:44.889Z,3.30
2022-10-17T10:19:33.323Z,2.90
2022-10-17T10:22:02.380Z,3.03
2022-10-17T10:24:31.020Z,2.88
2022-10-17T10:27:01.412Z,3.13
2022-10-17T10:29:41.626Z,3.30
2022-10-17T10:32:11.608Z,3.10
2022-10-17T10:34:47.476Z,3.35
2022-10-17T10:37:29.283Z,3.20
2022-10-17T10:40:02.524Z,2.72
2022-10-17T10:42:40.239Z,3.15
2022-10-17T10:45:43.213Z,2.90
2022-10-17T10:48:25.133Z,3.15
2022-10-17T10:51:09.840Z,3.33
2022-10-17T10:53:55.416Z,3.33
2022-10-17T10:56:30.959Z,3.17
2022-10-17T10:59:18.789Z,3.00
2022-10-17T11:01:51.965Z,3.03
2022-10-17T11:04:49.427Z,3.20
2022-10-17T11:07:23.653Z,2.85
2022-10-17T11:09:58.492Z,3.28
2022-10-17T11:12:30.652Z,3.20
2022-10-17T11:15:31.176Z,3.50
2022-10-17T11:18:02.865Z,3.40
2022-10-17T11:20:47.355Z,3.63
2022-10-17T11:23:35.092Z,4.22
2022-10-17T11:26:10.743Z,3.40
2022-10-17T11:28:37.335Z,3.35
2022-10-17T11:31:09.026Z,2.92
2022-10-17T11:33:35.426Z,3.38
2022-10-17T11:36:15.867Z,3.72
2022-10-17T11:38:51.098Z,3.50
2022-10-17T11:41:26.982Z,3.33
2022-10-17T11:43:59.385Z,3.10
2022-10-17T11:46:28.431Z,4.57
2022-10-17T11:49:10.730Z,3.05
2022-10-17T11:52:15.810Z,3.00
2022-10-17T11:54:50.906Z,3.25
2022-10-17T11:57:31.767Z,3.00
2022-10-17T12:00:16.834Z,3.45
2022-10-17T12:02:59.674Z,3.05
2022-10-17T12:05:56.857Z,4.00
2022-10-17T12:08:47.317Z,3.17
2022-10-17T12:11:34.737Z,2.88
2022-10-17T12:14:05.824Z,3.28
2022-10-17T12:16:35.495Z,3.00
2022-10-17T12:19:10.907Z,3.00
2022-10-17T12:22:15.650Z,3.17
2022-10-17T12:24:47.581Z,3.25
2022-10-17T12:27:34.899Z,3.00
2022-10-17T12:30:15.903Z,3.10
2022-10-17T12:33:06.155Z,2.88
2022-10-17T12:35:36.223Z,3.13
2022-10-17T12:38:18.001Z,2.70
2022-10-17T12:40:48.701Z,2.72
2022-10-17T12:43:15.469Z,3.38
2022-10-17T12:45:51.923Z,2.83
2022-10-17T12:48:34.100Z,2.88
2022-10-17T12:51:35.303Z,3.13
2022-10-17T12:54:12.634Z,3.00
2022-10-17T12:56:50.615Z,2.78
2022-10-17T12:59:22.469Z,2.70
2022-10-17T13:01:55.416Z,3.00
2022-10-17T13:04:22.445Z,2.90
2022-10-17T13:06:54.328Z,2.85
2022-10-17T13:09:42.794Z,3.03
2022-10-17T13:12:24.959Z,2.63
2022-10-17T13:14:53.891Z,3.63
2022-10-17T13:17:27.391Z,2.47
2022-10-17T13:19:54.692Z,2.50
2022-10-17T13:22:29.639Z,3.58
2022-10-17T13:25:15.182Z,2.75
2022-10-17T13:27:42.517Z,3.05
2022-10-17T13:30:32.111Z,3.22
2022-10-17T13:32:59.761Z,2.78
2022-10-17T13:38:25.724Z,3.17
2022-10-17T13:41:01.197Z,2.92
2022-10-17T13:43:32.923Z,2.70
2022-10-17T13:46:25.312Z,2.67
2022-10-17T13:48:52.397Z,3.13
2022-10-17T13:51:21.880Z,2.45
2022-10-17T13:53:48.327Z,2.80
2022-10-17T13:56:29.858Z,3.00
2022-10-17T13:59:01.319Z,2.95
2022-10-17T14:01:29.060Z,3.00
2022-10-17T14:04:07.942Z,2.72
2022-10-17T14:06:45.154Z,2.88
2022-10-17T14:09:24.546Z,2.60
2022-10-17T14:12:12.666Z,2.72
2022-10-17T14:14:58.345Z,3.22
2022-10-17T14:17:30.325Z,3.38
2022-10-17T14:20:34.017Z,3.47
2022-10-17T14:23:17.452Z,3.00
2022-10-17T14:25:43.621Z,3.28
2022-10-17T14:28:15.525Z,2.90
2022-10-17T14:31:02.944Z,2.80
2022-10-17T14:33:31.567Z,3.05
2022-10-17T14:36:01.105Z,2.78
2022-10-17T14:38:29.501Z,3.05
2022-10-17T14:41:37.469Z,3.25
2022-10-17T14:44:03.630Z,2.92
2022-10-17T14:46:30.740Z,3.28
2022-10-17T14:49:06.649Z,3.05
2022-10-17T14:51:44.685Z,3.28
2022-10-17T14:54:24.927Z,3.38
2022-10-17T14:56:53.474Z,3.47
2022-10-17T14:59:51.709Z,3.22
2022-10-17T15:02:11.926Z,3.25
2022-10-17T15:04:38.335Z,3.08
2022-10-17T15:07:04.915Z,3.35
2022-10-17T15:09:31.518Z,3.33
2022-10-17T15:12:03.849Z,3.17
2022-10-17T15:14:30.231Z,3.55
2022-10-17T15:16:56.592Z,3.15
2022-10-17T15:19:22.962Z,3.65
2022-10-17T15:21:49.409Z,3.53
2022-10-17T15:24:16.020Z,3.42
2022-10-17T15:26:42.691Z,3.20
2022-10-17T15:29:17.045Z,3.67
2022-10-17T15:31:43.532Z,3.42
2022-10-17T15:34:09.936Z,3.40
2022-10-17T15:36:40.838Z,3.65
2022-10-17T15:39:07.720Z,3.80
2022-10-17T15:41:34.108Z,3.60
2022-10-17T15:44:00.617Z,3.88
2022-10-17T15:46:30.117Z,3.72
2022-10-17T15:48:57.389Z,3.70
2022-10-17T15:51:24.018Z,3.53
2022-10-17T15:53:50.435Z,4.13
2022-10-17T15:56:30.469Z,3.30
2022-10-17T15:58:57.236Z,3.97
2022-10-17T16:01:26.213Z,4.07
2022-10-17T16:03:53.139Z,3.72
2022-10-17T16:06:21.301Z,3.72
2022-10-17T16:08:49.132Z,4.28
2022-10-17T16:11:31.643Z,3.88
2022-10-17T16:14:00.704Z,4.45
2022-10-17T16:16:28.772Z,3.88
2022-10-17T16:18:55.517Z,4.30
2022-10-17T16:21:25.842Z,4.20
2022-10-17T16:23:52.686Z,4.13
2022-10-17T16:26:19.215Z,5.05
2022-10-17T16:28:46.174Z,4.45
2022-10-17T16:31:17.519Z,4.05
2022-10-17T16:33:43.900Z,4.07
2022-10-17T16:36:10.832Z,3.95
2022-10-17T16:38:37.172Z,4.18
2022-10-17T16:41:04.287Z,4.82
2022-10-17T16:43:38.302Z,4.65
2022-10-17T16:46:04.839Z,5.20
2022-10-17T16:48:31.274Z,4.85
2022-10-17T16:50:57.674Z,4.63
2022-10-17T16:53:24.125Z,5.20
2022-10-17T16:56:04.252Z,4.93
2022-10-17T16:58:32.355Z,4.75
2022-10-17T17:01:23.119Z,4.40
2022-10-17T17:03:50.971Z,4.15
2022-10-17T17:06:20.601Z,4.97
2022-10-17T17:08:47.441Z,5.00
2022-10-17T17:11:15.867Z,5.97
2022-10-17T17:13:42.780Z,5.70
2022-10-17T17:16:21.342Z,6.15
2022-10-17T17:18:49.259Z,6.10
2022-10-17T17:21:15.774Z,6.07
2022-10-17T17:23:43.574Z,5.45
2022-10-17T17:26:13.174Z,5.97
2022-10-17T17:28:40.540Z,6.32
2022-10-17T17:31:12.402Z,6.53
2022-10-17T17:33:40.560Z,17.52
2022-10-17T17:36:08.435Z,6.10
2022-10-17T17:38:36.632Z,7.53
2022-10-17T17:41:04.069Z,5.78
2022-10-17T17:43:30.548Z,5.57
2022-10-17T17:45:56.959Z,5.60
2022-10-17T17:48:23.464Z,5.22
2022-10-17T17:50:50.016Z,5.20
2022-10-17T17:53:16.937Z,5.93
2022-10-17T17:55:43.383Z,5.80
2022-10-17T17:58:11.182Z,5.57
2022-10-17T18:00:40.762Z,5.72
2022-10-17T18:03:08.120Z,5.57
2022-10-17T18:05:35.884Z,5.78
2022-10-17T18:08:02.401Z,5.90
2022-10-17T18:10:29.347Z,5.85
2022-10-17T18:12:56.080Z,5.47
2022-10-17T18:15:22.622Z,5.15
2022-10-17T18:17:49.119Z,5.97
2022-10-17T18:20:15.724Z,6.18
2022-10-17T18:22:42.228Z,5.13
2022-10-17T18:25:08.877Z,5.35
2022-10-17T18:27:35.355Z,5.80
2022-10-17T18:30:01.860Z,5.90
2022-10-17T18:32:31.623Z,5.63
2022-10-17T18:34:58.502Z,5.93
2022-10-17T18:37:25.011Z,7.90
2022-10-17T18:39:53.956Z,7.85
2022-10-17T18:42:20.437Z,7.18
2022-10-17T18:44:47.799Z,6.15
2022-10-17T18:47:14.202Z,5.47
2022-10-17T18:49:40.709Z,6.43
2022-10-17T18:52:09.428Z,5.63
2022-10-17T18:54:35.875Z,6.00
2022-10-17T18:57:02.301Z,6.03
2022-10-17T18:59:28.801Z,5.88
2022-10-17T19:01:55.308Z,5.20
2022-10-17T19:04:22.131Z,5.22
2022-10-17T19:06:51.304Z,5.75
2022-10-17T19:09:20.805Z,6.05
2022-10-17T19:11:47.364Z,6.70
2022-10-17T19:14:14.065Z,6.07
2022-10-17T19:16:43.596Z,6.97
2022-10-17T19:19:20.223Z,5.95
2022-10-17T19:21:47.218Z,6.20
2022-10-17T19:24:22.873Z,5.45
2022-10-17T19:26:52.938Z,6.05
2022-10-17T19:29:20.692Z,6.10
2022-10-17T19:31:48.371Z,5.50
2022-10-17T19:34:16.179Z,5.55
2022-10-17T19:36:42.641Z,5.60
2022-10-17T19:39:18.047Z,5.70
2022-10-17T19:44:12.307Z,6.13
2022-10-17T19:46:39.219Z,6.10
2022-10-17T19:49:06.854Z,5.68
2022-10-17T19:51:33.758Z,5.90
2022-10-17T19:54:00.873Z,5.90
2022-10-17T19:56:29.411Z,6.70
2022-10-17T19:58:56.942Z,6.88
2022-10-17T20:01:26.034Z,5.75
2022-10-17T20:03:52.886Z,5.63
2022-10-17T20:06:20.073Z,6.07
2022-10-17T20:08:46.667Z,6.05
2022-10-17T20:11:16.827Z,5.18
2022-10-17T20:13:44.729Z,7.03
2022-10-17T20:16:16.186Z,5.32
2022-10-17T20:18:43.725Z,5.38
2022-10-17T20:21:12.764Z,5.65
2022-10-17T20:23:40.186Z,7.53
2022-10-17T20:26:25.314Z,7.22
2022-10-17T20:28:53.693Z,5.28
2022-10-17T20:31:20.694Z,6.22
2022-10-17T20:33:47.085Z,5.95
2022-10-17T20:36:14.507Z,5.30
2022-10-17T20:38:40.990Z,5.88
2022-10-17T20:41:09.353Z,6.30
2022-10-17T20:43:36.738Z,6.18
2022-10-17T20:46:15.492Z,5.30
2022-10-17T20:48:53.446Z,5.88
2022-10-17T20:51:21.011Z,5.05
2022-10-17T20:53:48.439Z,5.55
2022-10-17T20:56:22.152Z,4.95
2022-10-17T20:58:57.687Z,6.05
2022-10-17T21:01:25.661Z,5.97
2022-10-17T21:03:52.801Z,5.47
2022-10-17T21:06:20.190Z,6.10
2022-10-17T21:08:47.678Z,5.50
2022-10-17T21:11:22.169Z,5.70
2022-10-17T21:13:57.399Z,5.95
2022-10-17T21:16:24.620Z,6.03
2022-10-17T21:18:55.171Z,5.65
2022-10-17T21:21:27.348Z,4.90
2022-10-17T21:23:57.085Z,6.18
2022-10-17T21:26:24.209Z,5.38
2022-10-17T21:28:51.080Z,5.70
2022-10-17T21:31:25.657Z,5.68
2022-10-17T21:33:55.327Z,5.60
2022-10-17T21:36:22.924Z,6.10
2022-10-17T21:38:52.184Z,5.90
2022-10-17T21:41:23.871Z,5.07
2022-10-17T21:43:55.759Z,6.57
2022-10-17T21:46:23.117Z,6.43
2022-10-17T21:48:51.707Z,6.70
2022-10-17T21:51:20.993Z,5.55
2022-10-17T21:53:47.942Z,5.18
2022-10-17T21:56:17.116Z,6.95
2022-10-17T21:58:43.761Z,6.00
2022-10-17T22:01:16.097Z,6.88
2022-10-17T22:03:46.745Z,6.70
2022-10-17T22:09:17.479Z,5.60
2022-10-17T22:11:46.605Z,5.90
2022-10-17T22:14:16.108Z,6.47
2022-10-17T22:16:44.911Z,6.20
2022-10-17T22:19:12.771Z,5.55
2022-10-17T22:21:39.415Z,5.57
2022-10-17T22:24:11.998Z,5.38
2022-10-17T22:26:38.831Z,5.93
2022-10-17T22:29:06.986Z,5.72
2022-10-17T22:31:33.966Z,5.60
2022-10-17T22:34:00.616Z,5.25
2022-10-17T22:36:27.242Z,5.97
2022-10-17T22:38:53.854Z,6.10
2022-10-17T22:41:20.493Z,4.97
2022-10-17T22:43:47.053Z,6.03
2022-10-17T22:46:16.092Z,6.95
2022-10-17T22:51:12.081Z,6.03
2022-10-17T22:53:38.827Z,6.05
2022-10-17T22:56:11.103Z,6.25
2022-10-17T22:58:38.447Z,6.60
2022-10-17T23:01:06.836Z,6.18
2022-10-17T23:03:34.860Z,6.95
2022-10-17T23:06:02.169Z,7.15
2022-10-17T23:08:28.976Z,7.25
2022-10-17T23:10:55.532Z,6.28
2022-10-17T23:13:22.493Z,6.78
2022-10-17T23:15:55.967Z,6.93
2022-10-17T23:18:23.813Z,7.30
2022-10-17T23:20:50.964Z,7.68
2022-10-17T23:23:18.644Z,7.00
2022-10-17T23:25:45.595Z,7.78
2022-10-17T23:28:15.551Z,7.18
2022-10-17T23:30:42.136Z,8.25
2022-10-17T23:33:11.116Z,7.47
2022-10-17T23:35:40.412Z,7.97
2022-10-17T23:38:07.090Z,8.77
2022-10-17T23:40:35.250Z,8.50
2022-10-17T23:43:02.317Z,7.80
2022-10-17T23:45:31.217Z,7.30
2022-10-17T23:47:59.736Z,7.47
2022-10-17T23:50:26.199Z,7.32
2022-10-17T23:52:55.195Z,6.47
2022-10-17T23:57:48.414Z,7.20
